Dominion, Canada
Current Conditions -  °F | °C
As of 2:00 AM on Tuesday 21 Oct 2014 (Local Time) from CYQY Reporting Station
Scattered Clouds Scattered Clouds  
Wind Chill: 36°   Ceiling: Unl
Heat Index: 41°   Visibility: 15mi
Dew Point: 32°   Wind: 8mph
Humidity: 70%   Direction: 250°WSW
Pressure: 29.93"   Gusts: NA
Location:  46.22°N, 60.02°W
Report Text: CYQY 210500Z 25007KT 15SM SCT043 05/00 A2993 RMK SC4 PRESRR SLP136
Loading
Personal Weather Stations






























Interactive Weather Map
Tropical Storm Tracking
New forecast layout! Learn more

10-Day Weather Forecast

Advertisements
Track Severe Weather on mobile